Time;durP1;ratioP1;P1;durP2;ratioP2;P2;SDS_P1;SDS_P2;PMS_P1;PMS_P2;Temp;Humidity;BMP_temperature;BMP_pressure;BME280_temperature;BME280_humidity;BME280_pressure;Samples;Min_cycle;Max_cycle;Signal;HPM_P1;HPM_P2
2023/06/22 00:00:51;;;;;;;19.25;8.82;;;;;;;14.07;53.78;99554.78;4975573;28;20056;-67
2023/06/22 00:03:21;;;;;;;14.18;7.90;;;;;;;14.05;54.24;99546.88;4974214;28;20045;-68
2023/06/22 00:05:48;;;;;;;14.93;7.60;;;;;;;14.00;53.59;99532.16;4975368;28;20053;-65
2023/06/22 00:08:13;;;;;;;16.40;8.82;;;;;;;13.98;54.36;99566.31;4965232;28;20038;-66
2023/06/22 00:10:39;;;;;;;14.05;7.63;;;;;;;13.98;54.21;99531.47;4954828;28;20065;-66
2023/06/22 00:13:08;;;;;;;17.05;8.52;;;;;;;13.99;54.32;99542.06;4954703;28;20042;-67
2023/06/22 00:15:34;;;;;;;19.50;7.57;;;;;;;13.99;54.24;99541.22;4970815;28;20049;-66
2023/06/22 00:18:00;;;;;;;18.15;8.68;;;;;;;13.96;54.47;99534.28;4955747;28;20537;-66
2023/06/22 00:20:29;;;;;;;13.23;8.27;;;;;;;13.95;54.56;99545.13;4955791;28;20042;-67
2023/06/22 00:22:59;;;;;;;16.77;6.32;;;;;;;13.96;54.35;99542.31;4955672;28;20816;-65
2023/06/22 00:25:24;;;;;;;20.42;7.63;;;;;;;13.94;54.10;99554.16;4955797;28;20061;-67
2023/06/22 00:27:50;;;;;;;13.23;7.15;;;;;;;13.92;54.12;99546.25;4955715;28;20035;-67
2023/06/22 00:30:16;;;;;;;16.98;8.18;;;;;;;13.92;54.91;99545.41;4936032;28;20049;-66
2023/06/22 00:32:43;;;;;;;12.63;7.32;;;;;;;13.89;55.35;99551.88;4950956;28;20043;-65
2023/06/22 00:35:09;;;;;;;19.40;7.97;;;;;;;13.89;55.32;99541.16;4946260;28;20061;-66
2023/06/22 00:37:35;;;;;;;10.80;6.78;;;;;;;13.88;55.23;99542.16;4955522;28;20030;-67
2023/06/22 00:40:01;;;;;;;18.10;7.85;;;;;;;13.89;55.13;99545.66;4955547;28;20420;-67
2023/06/22 00:42:26;;;;;;;14.70;8.05;;;;;;;13.88;55.61;99543.97;4952303;28;20042;-67
2023/06/22 00:44:52;;;;;;;15.95;7.15;;;;;;;13.85;55.51;99533.53;4955482;28;20046;-66
2023/06/22 00:47:18;;;;;;;14.90;6.75;;;;;;;13.82;55.28;99546.19;4970252;28;20038;-66
2023/06/22 00:49:44;;;;;;;14.73;6.88;;;;;;;13.81;55.47;99540.97;4953187;28;20058;-66
2023/06/22 00:52:13;;;;;;;14.73;7.47;;;;;;;13.80;55.89;99564.22;4955150;28;20050;-66
2023/06/22 00:54:45;;;;;;;18.05;7.78;;;;;;;13.80;56.46;99547.31;4955275;28;20042;-66
2023/06/22 00:57:12;;;;;;;13.45;6.60;;;;;;;13.79;56.29;99567.03;4969553;28;20363;-67
2023/06/22 00:59:37;;;;;;;14.73;7.95;;;;;;;13.77;56.45;99544.88;4939599;28;20051;-63
2023/06/22 01:02:03;;;;;;;13.07;7.55;;;;;;;13.73;56.58;99568.44;4956741;28;20042;-67
2023/06/22 01:04:35;;;;;;;13.07;7.32;;;;;;;13.75;57.60;99547.72;4957292;28;20065;-66
2023/06/22 01:07:19;;;;;;;17.60;7.90;;;;;;;13.79;57.90;99546.44;4941703;28;20457;-65
2023/06/22 01:10:05;;;;;;;15.38;7.18;;;;;;;13.78;56.18;99549.25;4973838;28;20057;-66
2023/06/22 01:12:38;;;;;;;22.08;8.15;;;;;;;13.73;56.81;99547.00;4958913;28;20054;-67
2023/06/22 01:15:52;;;;;;;20.60;9.10;;;;;;;13.80;57.25;99544.63;4958619;28;20053;-66
2023/06/22 01:18:19;;;;;;;21.60;8.98;;;;;;;13.71;57.16;99613.25;4940708;28;20055;-65
2023/06/22 01:20:45;;;;;;;23.90;9.10;;;;;;;13.71;57.67;99569.53;4958573;28;20051;-68
2023/06/22 01:23:35;;;;;;;19.63;10.05;;;;;;;13.74;58.42;99558.56;4956850;28;20057;-64
2023/06/22 01:26:19;;;;;;;18.17;8.38;;;;;;;13.78;56.92;99559.97;4958646;28;20046;-65
2023/06/22 01:28:52;;;;;;;32.88;11.88;;;;;;;13.75;58.21;99552.22;4958473;28;20045;-66
2023/06/22 01:31:22;;;;;;;20.30;8.85;;;;;;;13.73;57.85;99551.50;4958428;28;20046;-65
2023/06/22 01:33:52;;;;;;;25.95;9.50;;;;;;;13.75;58.22;99544.19;4956871;28;20030;-65
2023/06/22 01:36:22;;;;;;;18.15;7.88;;;;;;;13.77;57.49;99553.78;4958149;28;20053;-65
2023/06/22 01:38:48;;;;;;;22.10;8.80;;;;;;;13.82;57.93;99550.72;4958271;28;20497;-64
2023/06/22 01:41:13;;;;;;;16.35;8.55;;;;;;;13.89;57.38;99553.69;4972954;28;20054;-66
2023/06/22 01:43:39;;;;;;;18.35;8.85;;;;;;;13.91;57.36;99565.97;4957007;28;20042;-65
2023/06/22 01:46:04;;;;;;;11.82;7.13;;;;;;;13.93;56.28;99553.31;4956716;28;20058;-65
2023/06/22 01:48:30;;;;;;;16.23;7.70;;;;;;;14.00;56.23;99551.78;4973403;28;20046;-66
2023/06/22 01:50:56;;;;;;;14.38;6.97;;;;;;;14.03;55.57;99548.84;4958131;28;20054;-66
2023/06/22 01:53:23;;;;;;;17.95;8.23;;;;;;;14.09;55.53;99544.78;4957347;28;20038;-65
2023/06/22 01:55:51;;;;;;;15.32;6.97;;;;;;;14.13;55.05;99544.38;4940928;28;20524;-65
2023/06/22 01:58:20;;;;;;;11.43;6.28;;;;;;;14.18;55.04;99547.50;4956745;28;20520;-66
2023/06/22 02:00:50;;;;;;;16.35;7.72;;;;;;;14.25;55.67;99544.28;4956560;28;20057;-65
2023/06/22 02:03:26;;;;;;;15.05;7.15;;;;;;;14.35;55.51;99553.19;4957747;28;20050;-64
2023/06/22 02:06:01;;;;;;;12.77;7.80;;;;;;;14.40;55.48;99551.00;4957236;28;20042;-65
2023/06/22 02:08:31;;;;;;;17.67;7.80;;;;;;;14.46;55.43;99553.13;4937315;28;20066;-65
2023/06/22 02:11:00;;;;;;;15.38;7.22;;;;;;;14.52;54.93;99549.91;4946995;28;20390;-65
2023/06/22 02:13:26;;;;;;;12.30;6.75;;;;;;;14.60;54.25;99546.53;4957304;28;20489;-66
2023/06/22 02:15:52;;;;;;;12.32;6.60;;;;;;;14.67;52.84;99539.66;4956493;28;20555;-65
2023/06/22 02:18:17;;;;;;;17.40;7.90;;;;;;;14.74;53.07;99546.16;4940020;28;20057;-64
2023/06/22 02:20:42;;;;;;;21.52;7.85;;;;;;;14.80;52.84;99538.38;4957649;28;20046;-65
2023/06/22 02:23:08;;;;;;;16.13;7.45;;;;;;;14.87;52.13;99539.53;4955901;28;20046;-69
2023/06/22 02:25:35;;;;;;;15.75;7.18;;;;;;;14.94;52.69;99538.97;4940243;28;20058;-66
2023/06/22 02:28:00;;;;;;;15.60;6.95;;;;;;;15.02;53.26;99531.06;4954576;28;20135;-69
2023/06/22 02:30:26;;;;;;;16.15;7.07;;;;;;;15.06;52.62;99527.13;4956274;28;20603;-66
2023/06/22 02:32:58;;;;;;;9.52;6.30;;;;;;;15.12;52.06;99526.56;4957596;28;20050;-68
2023/06/22 02:35:23;;;;;;;12.32;6.57;;;;;;;15.14;52.06;99527.25;4936515;28;20497;-66
2023/06/22 02:37:51;;;;;;;10.45;5.93;;;;;;;15.18;51.46;99526.84;4955144;28;20679;-68
2023/06/22 02:40:17;;;;;;;17.33;7.10;;;;;;;15.23;50.94;99535.34;4953627;28;20073;-68
2023/06/22 02:42:44;;;;;;;9.35;6.68;;;;;;;15.33;51.06;99518.34;4955246;28;20413;-69
2023/06/22 02:45:09;;;;;;;12.15;7.00;;;;;;;15.40;50.41;99485.41;4956925;28;20042;-67
2023/06/22 02:47:35;;;;;;;10.88;6.13;;;;;;;15.45;50.72;99511.84;4955977;28;20049;-68
2023/06/22 02:50:01;;;;;;;11.00;6.15;;;;;;;15.50;50.05;99515.78;4956232;28;20050;-68
2023/06/22 02:52:26;;;;;;;13.05;7.20;;;;;;;15.56;49.93;99512.56;4955518;28;20050;-68
2023/06/22 02:54:51;;;;;;;11.32;6.63;;;;;;;15.59;49.66;99506.88;4957258;28;20061;-69
2023/06/22 02:57:17;;;;;;;11.02;6.05;;;;;;;15.63;50.13;99498.53;4955808;28;20038;-68
2023/06/22 02:59:43;;;;;;;7.90;5.45;;;;;;;15.72;49.37;99503.88;4939607;28;20069;-68
2023/06/22 03:02:11;;;;;;;10.27;5.78;;;;;;;15.82;49.82;99519.97;4955405;28;20057;-69
2023/06/22 03:04:36;;;;;;;12.68;5.90;;;;;;;15.91;49.59;99508.38;4955529;28;20510;-68
2023/06/22 03:07:02;;;;;;;11.07;7.10;;;;;;;15.95;49.74;99504.38;4954658;28;20050;-67
2023/06/22 03:09:29;;;;;;;9.30;5.70;;;;;;;16.00;49.66;99502.09;4948645;28;20552;-69
2023/06/22 03:11:56;;;;;;;14.20;6.20;;;;;;;16.07;49.86;99502.34;4955073;28;20038;-70
2023/06/22 03:14:24;;;;;;;14.35;7.47;;;;;;;16.12;49.62;99490.16;4939151;28;20524;-69
2023/06/22 03:16:51;;;;;;;13.82;6.78;;;;;;;16.23;49.52;99498.03;4955177;28;20386;-70
2023/06/22 03:19:19;;;;;;;12.25;6.55;;;;;;;16.37;49.17;99498.50;4954373;28;20062;-68
2023/06/22 03:21:44;;;;;;;9.63;5.65;;;;;;;16.44;49.23;99499.63;4954485;28;20496;-67
2023/06/22 03:24:09;;;;;;;10.57;6.53;;;;;;;16.53;49.11;99507.63;4954193;28;20054;-67
2023/06/22 03:26:35;;;;;;;11.95;6.78;;;;;;;16.61;49.02;99488.88;4954356;28;20424;-69
2023/06/22 03:29:00;;;;;;;18.58;6.00;;;;;;;16.71;48.96;99486.16;4955372;28;20073;-70
2023/06/22 03:31:28;;;;;;;19.30;7.70;;;;;;;16.87;48.89;99477.41;4954933;28;20046;-70
2023/06/22 03:33:54;;;;;;;19.42;7.13;;;;;;;16.97;48.52;99486.25;4951772;28;20413;-68
2023/06/22 03:36:22;;;;;;;13.48;6.53;;;;;;;17.06;48.36;99475.41;4954965;28;20046;-68
2023/06/22 03:38:48;;;;;;;9.50;6.45;;;;;;;17.12;48.31;99484.72;4971311;28;20061;-69
2023/06/22 03:41:14;;;;;;;11.00;6.50;;;;;;;17.19;48.28;99496.56;4969519;28;20038;-70
2023/06/22 03:43:39;;;;;;;12.32;6.28;;;;;;;17.26;48.08;99496.78;4965116;28;20061;-69
2023/06/22 03:46:05;;;;;;;9.57;6.32;;;;;;;17.35;48.05;99445.50;4970962;28;20042;-70
2023/06/22 03:48:30;;;;;;;8.43;5.65;;;;;;;17.47;47.32;99489.22;4971142;28;20046;-69
2023/06/22 03:50:55;;;;;;;9.55;6.35;;;;;;;17.48;47.24;99468.50;4956276;28;20892;-68
2023/06/22 03:53:20;;;;;;;9.68;6.00;;;;;;;17.56;47.21;99477.47;4955979;28;20046;-69
2023/06/22 03:55:53;;;;;;;15.07;5.93;;;;;;;17.71;47.12;99469.69;4955088;28;20409;-69
2023/06/22 03:58:19;;;;;;;10.52;5.50;;;;;;;17.85;46.70;99465.53;4955005;28;20047;-69
2023/06/22 04:00:49;;;;;;;8.85;5.82;;;;;;;18.06;46.17;99464.13;4956351;28;20053;-68
2023/06/22 04:03:15;;;;;;;8.15;5.90;;;;;;;18.29;45.99;99469.78;4955847;28;20486;-69
2023/06/22 04:05:41;;;;;;;9.20;5.43;;;;;;;18.52;45.29;99461.94;4956004;28;20038;-68
2023/06/22 04:08:06;;;;;;;9.20;5.60;;;;;;;18.75;44.60;99460.34;4971229;28;20069;-67
2023/06/22 04:10:31;;;;;;;16.65;6.10;;;;;;;18.94;44.48;99448.41;4956302;28;20043;-67
2023/06/22 04:12:57;;;;;;;11.98;6.68;;;;;;;19.08;43.38;99453.13;4954657;28;20042;-68
2023/06/22 04:15:22;;;;;;;12.63;5.00;;;;;;;19.19;43.68;99458.19;4955934;28;20041;-68
2023/06/22 04:17:47;;;;;;;8.18;5.18;;;;;;;19.30;42.93;99451.59;4955775;28;20046;-68
2023/06/22 04:20:12;;;;;;;13.95;6.18;;;;;;;19.42;42.42;99447.53;4954691;28;20042;-69
2023/06/22 04:22:37;;;;;;;7.45;4.60;;;;;;;19.67;42.81;99455.63;4954655;28;20054;-69
2023/06/22 04:25:03;;;;;;;11.40;6.10;;;;;;;20.01;42.67;99458.06;4954203;28;20065;-68
2023/06/22 04:27:29;;;;;;;7.90;5.30;;;;;;;20.37;41.51;99393.50;4955781;28;20046;-68
2023/06/22 04:29:54;;;;;;;10.50;5.35;;;;;;;20.68;40.63;99432.22;4954510;28;20053;-68
2023/06/22 04:32:20;;;;;;;8.13;5.43;;;;;;;20.88;40.00;99443.47;4955259;28;20046;-70
2023/06/22 04:34:45;;;;;;;7.97;5.15;;;;;;;20.99;40.09;99453.88;4958157;28;20038;-69
2023/06/22 04:37:15;;;;;;;9.77;5.60;;;;;;;21.11;39.44;99429.88;4959534;28;20046;-70
2023/06/22 04:39:41;;;;;;;13.50;5.32;;;;;;;21.21;39.73;99435.94;4959801;28;20057;-70
2023/06/22 04:42:06;;;;;;;10.60;5.03;;;;;;;21.38;39.52;99432.88;4959654;28;20046;-70
2023/06/22 04:44:32;;;;;;;9.98;4.90;;;;;;;21.59;39.13;99450.31;4941407;28;20500;-70
2023/06/22 04:47:03;;;;;;;12.52;5.18;;;;;;;21.81;39.15;99421.41;4941755;28;20058;-70
2023/06/22 04:49:33;;;;;;;7.70;5.50;;;;;;;22.07;37.95;99357.50;4937946;28;20053;-68
2023/06/22 04:51:59;;;;;;;9.80;5.38;;;;;;;22.36;37.88;99361.19;4940110;28;20058;-69
2023/06/22 04:54:25;;;;;;;8.02;5.32;;;;;;;22.39;37.50;99355.38;4955286;28;20046;-69
2023/06/22 04:56:56;;;;;;;9.75;5.10;;;;;;;22.34;37.46;99357.84;4939971;28;20078;-69
2023/06/22 04:59:28;;;;;;;5.95;4.82;;;;;;;22.28;37.67;99354.00;4939788;28;20049;-68
2023/06/22 05:01:54;;;;;;;7.25;4.97;;;;;;;22.34;37.49;99353.25;4939576;28;20043;-68
2023/06/22 05:04:20;;;;;;;12.90;5.25;;;;;;;22.71;37.04;99351.31;4939618;28;20054;-69
2023/06/22 05:06:45;;;;;;;7.97;5.05;;;;;;;23.16;36.24;99355.50;4953937;28;20433;-67
2023/06/22 05:09:11;;;;;;;7.47;4.93;;;;;;;23.63;35.67;99354.81;4939674;28;20050;-67
2023/06/22 05:11:37;;;;;;;9.27;5.97;;;;;;;24.17;35.01;99357.56;4959572;28;20053;-67
2023/06/22 05:14:02;;;;;;;8.35;5.70;;;;;;;24.65;34.53;99365.72;4958548;28;20034;-68
2023/06/22 05:16:27;;;;;;;7.63;4.82;;;;;;;24.90;34.04;99369.53;4958787;28;20380;-67
2023/06/22 05:18:55;;;;;;;8.40;5.65;;;;;;;25.18;33.91;99363.88;4958887;28;20046;-68
2023/06/22 05:21:26;;;;;;;15.70;5.25;;;;;;;25.38;33.69;99368.53;4957247;28;20065;-68
2023/06/22 05:23:53;;;;;;;8.45;5.22;;;;;;;25.40;32.86;99363.66;4956585;28;20050;-67
2023/06/22 05:26:19;;;;;;;11.32;5.88;;;;;;;25.46;33.04;99362.84;4958727;28;20050;-68
2023/06/22 05:28:45;;;;;;;8.32;5.18;;;;;;;25.67;33.54;99358.00;4957430;28;20045;-68
2023/06/22 05:31:12;;;;;;;11.90;6.03;;;;;;;26.11;32.77;99350.06;4958607;28;20493;-68
2023/06/22 05:33:37;;;;;;;7.82;5.30;;;;;;;26.59;32.21;99347.75;4958709;28;20045;-71
2023/06/22 05:36:02;;;;;;;8.05;4.82;;;;;;;26.88;30.94;99351.75;4956194;28;20050;-71
2023/06/22 05:38:27;;;;;;;9.43;4.95;;;;;;;27.04;30.95;99345.75;4958374;28;20432;-70
2023/06/22 05:40:53;;;;;;;5.88;4.55;;;;;;;27.11;30.13;99350.13;4958397;28;20046;-69
2023/06/22 05:43:18;;;;;;;6.30;4.50;;;;;;;27.18;30.23;99355.53;4958422;28;20043;-72
2023/06/22 05:45:43;;;;;;;9.35;4.82;;;;;;;27.21;30.93;99351.50;4957763;28;20050;-71
2023/06/22 05:48:08;;;;;;;8.93;5.30;;;;;;;27.21;30.34;99343.28;4940993;28;20054;-72
2023/06/22 05:50:33;;;;;;;11.88;6.00;;;;;;;27.14;30.18;99348.00;4958180;28;20054;-71
2023/06/22 05:52:59;;;;;;;9.38;5.22;;;;;;;27.00;30.11;99348.09;4957050;28;20046;-70
2023/06/22 05:55:24;;;;;;;5.65;4.68;;;;;;;27.10;30.22;99351.16;4940748;28;20050;-71
2023/06/22 05:57:49;;;;;;;8.90;5.07;;;;;;;27.41;30.39;99353.03;4956898;28;20061;-70
2023/06/22 06:00:15;;;;;;;8.88;5.75;;;;;;;28.01;29.55;99355.13;4958179;28;20054;-72
2023/06/22 06:02:43;;;;;;;8.23;4.75;;;;;;;28.95;28.66;99353.66;4958219;28;20523;-71
2023/06/22 06:05:14;;;;;;;6.95;5.00;;;;;;;29.92;26.84;99347.47;4958033;28;20046;-70
2023/06/22 06:07:39;;;;;;;6.75;4.82;;;;;;;30.20;26.48;99343.16;4958118;28;20042;-69
2023/06/22 06:10:06;;;;;;;6.70;5.10;;;;;;;30.12;27.14;99347.13;4956253;28;20050;-69
2023/06/22 06:12:31;;;;;;;7.97;5.30;;;;;;;30.57;26.38;99338.13;4957820;28;20058;-69
2023/06/22 06:14:56;;;;;;;5.63;4.95;;;;;;;31.07;25.35;99340.09;4956632;28;20506;-68
2023/06/22 06:17:21;;;;;;;6.50;5.25;;;;;;;31.78;25.17;99336.56;4973030;28;20053;-70
2023/06/22 06:19:47;;;;;;;6.25;5.35;;;;;;;32.66;24.59;99340.13;4957858;28;20057;-70
2023/06/22 06:22:12;;;;;;;6.45;5.13;;;;;;;33.39;23.80;99346.91;4957580;28;20038;-68
2023/06/22 06:24:37;;;;;;;6.35;4.55;;;;;;;33.83;23.01;99344.72;4955490;28;20469;-69
2023/06/22 06:27:04;;;;;;;8.70;5.32;;;;;;;34.16;22.76;99347.09;4940705;28;20042;-69
2023/06/22 06:29:29;;;;;;;8.23;5.47;;;;;;;34.70;22.39;99334.81;4957836;28;20078;-70
2023/06/22 06:31:54;;;;;;;7.03;5.20;;;;;;;35.14;22.04;99344.28;4957693;28;20050;-68
2023/06/22 06:34:20;;;;;;;9.57;5.35;;;;;;;35.54;21.21;99337.91;4956205;28;20053;-70
2023/06/22 06:36:45;;;;;;;6.03;5.30;;;;;;;35.96;21.16;99343.09;4956159;28;20073;-69
2023/06/22 06:39:10;;;;;;;9.38;5.50;;;;;;;36.56;20.92;99332.03;4957319;28;20038;-69
2023/06/22 06:41:35;;;;;;;7.85;5.07;;;;;;;37.24;19.88;99344.06;4939195;28;20505;-70
2023/06/22 06:44:00;;;;;;;7.78;5.25;;;;;;;37.66;19.59;99337.84;4955540;28;20058;-71
2023/06/22 06:46:26;;;;;;;12.55;7.10;;;;;;;38.16;19.17;99343.94;4957168;28;20054;-71
2023/06/22 06:48:51;;;;;;;8.95;5.53;;;;;;;38.70;19.00;99339.91;4955979;28;20038;-71
2023/06/22 06:51:16;;;;;;;12.60;5.65;;;;;;;39.18;18.72;99337.75;4956774;28;20058;-72
2023/06/22 06:53:41;;;;;;;7.63;6.20;;;;;;;39.37;18.75;99332.13;4956802;28;20038;-72
2023/06/22 06:56:06;;;;;;;6.80;6.07;;;;;;;39.17;18.53;99330.50;4955819;28;20138;-70
2023/06/22 06:58:32;;;;;;;6.25;5.60;;;;;;;38.65;18.95;99334.38;4957045;28;20057;-70
2023/06/22 07:00:57;;;;;;;8.57;6.03;;;;;;;38.01;19.19;99339.38;4956872;28;20113;-70
2023/06/22 07:03:23;;;;;;;11.55;5.90;;;;;;;37.43;19.31;99327.47;4956468;28;20038;-69
2023/06/22 07:05:48;;;;;;;6.43;5.80;;;;;;;36.67;19.91;99337.22;4956680;28;20077;-70
2023/06/22 07:08:13;;;;;;;7.05;5.13;;;;;;;36.13;20.46;99337.19;4971559;28;20034;-70
2023/06/22 07:10:38;;;;;;;6.40;5.75;;;;;;;35.77;20.65;99332.91;4955431;28;20512;-70
2023/06/22 07:13:03;;;;;;;6.45;5.30;;;;;;;35.25;20.72;99332.13;4956753;28;20038;-71
2023/06/22 07:15:28;;;;;;;7.60;5.97;;;;;;;34.52;21.59;99333.41;4955602;28;20057;-70
2023/06/22 07:17:54;;;;;;;9.93;5.47;;;;;;;33.51;22.74;99334.56;4956578;28;20042;-70
2023/06/22 07:20:19;;;;;;;6.18;5.57;;;;;;;32.61;23.79;99327.13;4956391;28;20057;-71
2023/06/22 07:22:45;;;;;;;7.35;5.60;;;;;;;32.11;23.98;99330.94;4956488;28;20077;-72
2023/06/22 07:25:14;;;;;;;8.88;5.78;;;;;;;31.93;24.90;99333.19;4938566;28;20057;-70
2023/06/22 07:27:56;;;;;;;9.70;5.93;;;;;;;32.03;23.98;99331.41;4954795;28;20046;-71
2023/06/22 07:30:27;;;;;;;10.95;6.63;;;;;;;32.09;24.20;99330.34;4956464;28;20404;-70
2023/06/22 07:32:52;;;;;;;9.25;6.40;;;;;;;32.15;24.72;99316.63;4938984;28;20050;-71
2023/06/22 07:35:18;;;;;;;13.30;6.30;;;;;;;32.19;24.90;99321.41;4955023;28;20047;-69
2023/06/22 07:37:43;;;;;;;10.10;6.75;;;;;;;32.23;23.68;99314.28;4956250;28;20054;-71
2023/06/22 07:40:09;;;;;;;6.38;5.22;;;;;;;32.25;23.55;99322.31;4954925;28;20382;-71
2023/06/22 07:42:34;;;;;;;9.68;5.10;;;;;;;32.31;24.08;99318.50;4956095;28;20054;-71
2023/06/22 07:45:00;;;;;;;7.00;5.10;;;;;;;32.57;24.17;99322.38;4971059;28;20516;-71
2023/06/22 07:47:28;;;;;;;6.03;5.43;;;;;;;33.00;23.72;99325.00;4956167;28;20378;-71
2023/06/22 07:49:55;;;;;;;8.35;6.10;;;;;;;33.62;23.25;99323.56;4956108;28;20043;-70
2023/06/22 07:52:21;;;;;;;7.38;6.10;;;;;;;33.94;23.07;99316.00;4953717;28;20050;-71
2023/06/22 07:54:46;;;;;;;8.32;5.57;;;;;;;33.70;23.07;99325.81;4954425;28;20038;-70
2023/06/22 07:57:11;;;;;;;6.03;5.30;;;;;;;33.26;23.11;99326.09;4955781;28;20054;-70
2023/06/22 07:59:37;;;;;;;6.03;5.20;;;;;;;32.74;23.19;99318.41;4956036;28;20053;-70
2023/06/22 08:02:03;;;;;;;6.75;5.35;;;;;;;32.34;23.51;99313.31;4954661;28;20050;-70
2023/06/22 08:04:28;;;;;;;7.13;5.35;;;;;;;31.86;24.26;99311.31;4955693;28;20046;-69
2023/06/22 08:06:53;;;;;;;10.93;5.70;;;;;;;31.57;25.22;99312.53;4954401;28;20042;-70
2023/06/22 08:09:19;;;;;;;7.95;6.03;;;;;;;31.22;25.21;99299.06;4954108;28;20042;-70
2023/06/22 08:11:44;;;;;;;7.32;5.53;;;;;;;30.92;26.21;99302.16;4955750;28;20054;-70
2023/06/22 08:14:09;;;;;;;9.27;5.60;;;;;;;30.77;25.83;99299.97;4954812;28;20057;-70
2023/06/22 08:16:34;;;;;;;8.23;5.97;;;;;;;30.92;26.04;99304.91;4955886;28;20050;-69
2023/06/22 08:18:59;;;;;;;10.27;5.35;;;;;;;31.15;26.00;99303.94;4953879;28;20054;-69
2023/06/22 08:21:25;;;;;;;7.65;5.40;;;;;;;31.61;25.43;99297.16;4954521;28;20481;-70
2023/06/22 08:23:50;;;;;;;7.18;5.35;;;;;;;32.23;24.81;99305.16;4955823;28;20054;-70
2023/06/22 08:26:15;;;;;;;9.27;5.78;;;;;;;32.99;24.46;99297.66;4955763;28;20050;-71
2023/06/22 08:28:40;;;;;;;8.88;5.65;;;;;;;33.88;23.81;99300.47;4955587;28;20042;-70
2023/06/22 08:31:05;;;;;;;8.27;5.95;;;;;;;34.82;23.00;99293.88;4955729;28;20046;-72
2023/06/22 08:33:31;;;;;;;10.18;5.88;;;;;;;35.53;22.27;99291.06;4953978;28;20054;-70
2023/06/22 08:35:58;;;;;;;6.68;6.00;;;;;;;35.82;21.92;99297.63;4953685;28;20054;-72
2023/06/22 08:38:23;;;;;;;10.50;5.68;;;;;;;35.49;22.18;99292.72;4955532;28;20464;-70
2023/06/22 08:40:48;;;;;;;8.70;6.53;;;;;;;34.98;22.10;99287.22;4954531;28;20054;-71
2023/06/22 08:43:14;;;;;;;10.32;6.28;;;;;;;34.58;22.54;99288.81;4955589;28;20156;-70
2023/06/22 08:45:39;;;;;;;8.23;5.70;;;;;;;34.31;22.72;99284.63;4955496;28;20054;-70
2023/06/22 08:48:05;;;;;;;8.30;7.10;;;;;;;34.16;22.82;99285.38;4954489;28;20042;-71
2023/06/22 08:50:30;;;;;;;8.63;5.32;;;;;;;34.44;23.09;99281.31;4955598;28;20054;-71
2023/06/22 08:52:55;;;;;;;6.13;5.53;;;;;;;35.51;22.39;99280.25;4955547;28;20046;-70
2023/06/22 08:55:20;;;;;;;7.22;5.80;;;;;;;36.91;20.85;99276.19;4955561;28;20053;-70
2023/06/22 08:57:45;;;;;;;6.55;5.95;;;;;;;38.38;19.87;99274.56;4938130;28;20050;-69
2023/06/22 09:00:16;;;;;;;7.28;6.63;;;;;;;39.72;18.29;99275.69;4955512;28;20042;-69
2023/06/22 09:02:42;;;;;;;7.43;6.50;;;;;;;41.07;17.53;99279.63;4955509;28;20401;-69
2023/06/22 09:05:07;;;;;;;10.13;7.30;;;;;;;42.53;16.58;99276.59;4954142;28;20412;-70
2023/06/22 09:07:34;;;;;;;8.85;7.90;;;;;;;44.01;15.75;99273.97;4938025;28;20065;-69
2023/06/22 09:09:59;;;;;;;9.15;8.38;;;;;;;45.47;15.16;99274.72;4955395;28;20049;-69
2023/06/22 09:12:26;;;;;;;10.13;9.13;;;;;;;46.56;14.17;99273.84;4955523;28;20046;-69
2023/06/22 09:14:52;;;;;;;10.90;10.10;;;;;;;47.63;13.70;99268.41;4955299;28;20038;-71
2023/06/22 09:17:17;;;;;;;14.43;13.00;;;;;;;48.54;13.37;99268.19;4954171;28;20409;-70
2023/06/22 09:19:43;;;;;;;13.75;12.75;;;;;;;49.35;13.21;99269.03;4956540;28;20402;-71
2023/06/22 09:22:08;;;;;;;15.90;14.80;;;;;;;50.09;12.27;99255.31;4958646;28;20046;-70
2023/06/22 09:24:33;;;;;;;18.70;17.40;;;;;;;50.57;12.00;99245.06;4958431;28;20054;-70
2023/06/22 09:26:59;;;;;;;19.83;18.45;;;;;;;50.14;11.48;99247.28;4958535;28;20050;-69
2023/06/22 09:29:24;;;;;;;21.40;20.05;;;;;;;50.18;11.78;99244.50;4958763;28;20050;-69
2023/06/22 09:31:49;;;;;;;22.60;20.67;;;;;;;50.51;11.89;99249.44;4958903;28;20049;-71
2023/06/22 09:34:15;;;;;;;23.50;22.23;;;;;;;51.05;11.61;99248.91;4958554;28;20046;-70
2023/06/22 09:36:41;;;;;;;27.27;25.73;;;;;;;51.68;11.44;99262.16;4958087;28;20046;-71
2023/06/22 09:39:06;;;;;;;31.38;29.63;;;;;;;52.22;11.39;99258.50;4957290;28;20057;-70
2023/06/22 09:41:31;;;;;;;34.30;32.30;;;;;;;52.71;11.06;99259.16;4958487;28;20042;-70
2023/06/22 09:43:57;;;;;;;32.28;30.23;;;;;;;52.84;10.53;99254.72;4958272;28;20057;-70
2023/06/22 09:46:25;;;;;;;35.53;33.50;;;;;;;52.85;10.41;99257.16;4956706;28;20050;-70
2023/06/22 09:48:50;;;;;;;36.42;34.42;;;;;;;53.02;10.51;99247.06;4958307;28;20073;-70
2023/06/22 09:51:15;;;;;;;40.10;38.10;;;;;;;53.17;10.39;99240.16;4956371;28;20053;-71
2023/06/22 09:53:40;;;;;;;40.80;38.38;;;;;;;53.39;10.12;99225.97;4958229;28;20050;-71
2023/06/22 09:56:06;;;;;;;43.40;41.05;;;;;;;53.67;10.51;99228.84;4956795;28;20413;-70
2023/06/22 09:58:31;;;;;;;44.15;41.95;;;;;;;53.97;10.32;99217.81;4958101;28;20405;-69
2023/06/22 10:00:56;;;;;;;45.72;43.53;;;;;;;54.16;10.07;99216.53;4958115;28;20053;-71
2023/06/22 10:03:22;;;;;;;48.47;46.17;;;;;;;54.14;10.07;99221.03;4973180;28;20042;-71
2023/06/22 10:05:48;;;;;;;48.45;46.17;;;;;;;54.37;10.25;99220.56;4956960;28;20046;-71
2023/06/22 10:08:13;;;;;;;53.97;51.22;;;;;;;54.52;9.69;99222.97;4973277;28;20049;-69
2023/06/22 10:10:38;;;;;;;53.33;50.83;;;;;;;54.18;9.68;99221.88;4957205;28;20042;-70
2023/06/22 10:13:10;;;;;;;53.20;50.63;;;;;;;54.13;9.97;99222.25;4955321;28;20057;-69
2023/06/22 10:15:35;;;;;;;58.10;55.20;;;;;;;54.16;9.80;99224.28;4957322;28;20034;-69
2023/06/22 10:18:00;;;;;;;56.72;53.58;;;;;;;54.31;9.46;99220.16;4953201;28;20046;-71
2023/06/22 10:20:26;;;;;;;55.10;52.40;;;;;;;54.42;9.75;99206.66;4957001;28;20045;-70
2023/06/22 10:22:51;;;;;;;49.45;46.97;;;;;;;52.86;10.12;99199.00;4955020;28;20058;-70
2023/06/22 10:25:17;;;;;;;37.45;35.50;;;;;;;52.11;10.88;99188.50;4955443;28;20386;-69
2023/06/22 10:27:42;;;;;;;39.85;37.45;;;;;;;52.39;10.38;99182.13;4972134;28;20042;-69
2023/06/22 10:30:09;;;;;;;38.08;36.20;;;;;;;51.98;10.47;99185.19;4953782;28;20049;-71
2023/06/22 10:32:36;;;;;;;33.22;31.52;;;;;;;50.79;11.27;99173.19;4955107;28;20386;-70
2023/06/22 10:35:02;;;;;;;25.67;24.13;;;;;;;48.55;12.29;99165.13;4956142;28;20034;-70
2023/06/22 10:37:35;;;;;;;19.88;18.35;;;;;;;46.01;13.45;99163.81;4956685;28;20049;-70
2023/06/22 10:40:05;;;;;;;15.13;13.95;;;;;;;43.41;15.24;99161.94;4956081;28;20042;-69
2023/06/22 10:42:30;;;;;;;11.85;10.73;;;;;;;41.21;16.65;99151.72;4953063;28;20050;-72
2023/06/22 10:44:56;;;;;;;11.45;9.63;;;;;;;39.40;17.61;99144.59;4967983;28;20049;-70
2023/06/22 10:47:21;;;;;;;10.50;9.50;;;;;;;37.75;18.50;99132.13;4955544;28;20051;-69
2023/06/22 10:49:46;;;;;;;10.38;9.25;;;;;;;36.35;19.57;99136.94;4957289;28;20049;-69
2023/06/22 10:52:11;;;;;;;12.50;7.90;;;;;;;35.17;21.00;99138.66;4957324;28;20046;-70
2023/06/22 10:54:37;;;;;;;10.40;8.05;;;;;;;34.19;21.56;99135.44;4956762;28;20543;-71
2023/06/22 10:57:03;;;;;;;7.57;6.88;;;;;;;33.44;22.74;99134.13;4956700;28;20042;-69
2023/06/22 10:59:29;;;;;;;8.45;7.00;;;;;;;32.84;23.74;99134.63;4971629;28;20052;-70
2023/06/22 11:01:58;;;;;;;8.55;7.03;;;;;;;32.37;24.62;99140.88;4972000;28;20053;-70
2023/06/22 11:04:24;;;;;;;11.55;6.65;;;;;;;31.91;24.96;99137.69;4956779;28;20046;-70
2023/06/22 11:06:49;;;;;;;8.30;7.03;;;;;;;31.58;24.74;99129.56;4956983;28;20054;-70
2023/06/22 11:09:20;;;;;;;8.48;6.70;;;;;;;31.20;25.74;99117.53;4955632;28;20050;-69
2023/06/22 11:11:50;;;;;;;7.45;6.45;;;;;;;30.85;25.71;99128.03;4972271;28;20042;-71
2023/06/22 11:14:16;;;;;;;7.47;6.35;;;;;;;30.49;25.70;99121.13;4955053;28;20540;-68
2023/06/22 11:16:42;;;;;;;10.05;7.22;;;;;;;29.85;26.86;99121.41;4956898;28;20034;-67
2023/06/22 11:19:07;;;;;;;8.40;6.22;;;;;;;29.23;27.67;99114.97;4956730;28;20042;-68
2023/06/22 11:21:32;;;;;;;7.72;6.43;;;;;;;28.71;27.72;99120.38;4956776;28;20057;-68
2023/06/22 11:23:58;;;;;;;8.68;5.90;;;;;;;27.97;29.64;99115.53;4971627;28;20061;-69